Time;durP1;ratioP1;P1;durP2;ratioP2;P2;SDS_P1;SDS_P2;PMS_P1;PMS_P2;Temp;Humidity;BMP_temperature;BMP_pressure;BME280_temperature;BME280_humidity;BME280_pressure;Samples;Min_cycle;Max_cycle;Signal;HPM_P1;HPM_P2
2023/10/15 00:00:40;;;;;;;18.13;7.17;;;;;;;14.09;78.44;94939.66;5026633;28;20253;-82
2023/10/15 00:03:07;;;;;;;16.07;7.33;;;;;;;14.09;77.96;94942.31;4988245;28;20273;-85
2023/10/15 00:05:32;;;;;;;18.67;7.70;;;;;;;13.94;78.93;94946.34;4993438;28;20241;-84
2023/10/15 00:08:01;;;;;;;19.47;8.00;;;;;;;13.85;79.66;94937.91;4986777;28;20255;-85
2023/10/15 00:10:27;;;;;;;17.77;8.13;;;;;;;13.80;79.27;94932.53;5009303;28;20233;-84
2023/10/15 00:12:54;;;;;;;20.00;7.70;;;;;;;13.78;79.36;94931.13;5044187;28;20265;-84
2023/10/15 00:15:20;;;;;;;18.93;7.50;;;;;;;13.89;79.55;94927.78;5027078;28;20229;-84
2023/10/15 00:17:50;;;;;;;17.50;8.00;;;;;;;13.76;79.33;94926.06;4998916;28;20226;-83
2023/10/15 00:20:17;;;;;;;18.50;7.70;;;;;;;13.82;79.24;94929.66;5028495;28;20257;-85
2023/10/15 00:22:45;;;;;;;21.17;7.83;;;;;;;14.00;78.81;94927.84;5006513;28;20322;-81
2023/10/15 00:25:14;;;;;;;21.33;8.27;;;;;;;13.99;79.05;94922.81;5025361;28;20225;-83
2023/10/15 00:27:52;;;;;;;19.47;8.43;;;;;;;13.85;79.78;94921.34;5034811;28;20241;-83
2023/10/15 00:30:19;;;;;;;19.60;8.40;;;;;;;13.76;79.79;94922.63;5023781;28;20239;-83
2023/10/15 00:32:45;;;;;;;20.17;8.67;;;;;;;13.77;79.89;94922.44;5036413;28;20783;-83
2023/10/15 00:35:11;;;;;;;19.03;8.90;;;;;;;13.75;80.02;94913.16;5031307;28;20316;-83
2023/10/15 00:37:40;;;;;;;24.27;8.40;;;;;;;13.64;80.76;94924.38;5012406;28;20638;-84
2023/10/15 00:40:18;;;;;;;19.07;8.23;;;;;;;13.74;80.63;94925.50;5013177;28;20287;-84
2023/10/15 00:42:44;;;;;;;18.67;8.20;;;;;;;13.71;80.67;94920.66;5027361;28;20233;-82
2023/10/15 00:45:11;;;;;;;17.77;7.70;;;;;;;13.61;80.88;94920.38;4997378;28;20679;-83
2023/10/15 00:47:37;;;;;;;18.47;8.37;;;;;;;13.58;80.88;94914.75;5025471;28;20265;-84
2023/10/15 00:50:08;;;;;;;17.70;7.83;;;;;;;13.62;80.84;94916.72;5011374;28;20238;-83
2023/10/15 00:52:37;;;;;;;21.97;8.07;;;;;;;13.65;80.73;94918.13;5007200;28;20282;-82
2023/10/15 00:55:05;;;;;;;16.87;8.23;;;;;;;13.56;80.90;94911.53;5010387;28;20236;-82
2023/10/15 00:57:41;;;;;;;17.93;7.90;;;;;;;13.44;81.26;94914.88;5013262;28;20970;-83
2023/10/15 01:00:37;;;;;;;15.17;7.53;;;;;;;13.72;80.69;94916.22;5026585;28;21261;-78
2023/10/15 01:02:57;;;;;;;16.70;7.50;;;;;;;13.57;81.25;94906.03;5025748;28;20230;-84
2023/10/15 01:05:33;;;;;;;21.93;8.00;;;;;;;13.60;80.76;94908.25;5035275;28;20370;-84
2023/10/15 01:08:03;;;;;;;17.70;7.80;;;;;;;13.64;80.74;94904.16;5027996;28;20265;-69
2023/10/15 01:10:39;;;;;;;20.17;8.63;;;;;;;13.59;80.99;94903.22;5015057;28;20230;-68
2023/10/15 01:13:30;;;;;;;17.90;7.70;;;;;;;13.54;81.30;94903.06;5046537;28;20221;-69
2023/10/15 01:15:58;;;;;;;19.93;8.37;;;;;;;13.50;81.98;94903.50;5045108;28;20229;-69
2023/10/15 01:18:24;;;;;;;23.23;8.03;;;;;;;13.41;82.04;94898.72;5017981;28;20236;-83
2023/10/15 01:20:49;;;;;;;15.60;7.97;;;;;;;13.46;81.78;94902.31;5030308;28;20225;-83
2023/10/15 01:23:44;;;;;;;17.67;7.77;;;;;;;13.49;81.32;94903.72;4994973;28;20222;-82
2023/10/15 01:26:15;;;;;;;18.83;7.63;;;;;;;13.23;83.23;94891.59;5033160;28;20226;-85
2023/10/15 01:28:43;;;;;;;20.03;8.50;;;;;;;13.37;82.26;94895.72;5026893;28;20312;-84
2023/10/15 01:31:14;;;;;;;14.67;7.60;;;;;;;13.23;82.66;94904.75;5013476;28;20222;-80
2023/10/15 01:33:53;;;;;;;13.67;7.80;;;;;;;13.38;82.40;94904.41;5048284;28;20275;-81
2023/10/15 01:36:27;;;;;;;19.83;8.47;;;;;;;13.38;82.62;94909.66;5011889;28;20234;-82
2023/10/15 01:38:57;;;;;;;18.70;7.97;;;;;;;13.20;83.05;94909.66;5018208;28;21119;-81
2023/10/15 01:41:25;;;;;;;19.10;8.00;;;;;;;13.35;82.67;94910.91;5002038;28;20230;-83
2023/10/15 01:43:56;;;;;;;16.13;8.10;;;;;;;13.46;82.15;94907.59;5002513;28;20241;-81
2023/10/15 01:49:07;;;;;;;17.80;7.90;;;;;;;13.32;82.40;94908.72;5013192;28;20264;-82
2023/10/15 01:51:39;;;;;;;18.00;8.10;;;;;;;13.19;83.40;94900.94;4996639;28;20250;-81
2023/10/15 01:54:09;;;;;;;20.37;8.50;;;;;;;13.31;82.80;94898.41;4990224;28;20229;-82
2023/10/15 01:56:38;;;;;;;18.57;8.10;;;;;;;13.26;82.47;94901.69;5022801;28;20236;-80
2023/10/15 01:59:10;;;;;;;18.00;8.90;;;;;;;13.35;83.01;94903.03;5013395;28;20222;-82
2023/10/15 02:01:49;;;;;;;19.63;8.40;;;;;;;13.10;83.47;94899.63;5004688;28;20229;-68
2023/10/15 02:04:41;;;;;;;20.13;8.57;;;;;;;12.99;83.47;94904.75;5013373;28;20240;-69
2023/10/15 02:07:03;;;;;;;20.20;8.40;;;;;;;13.09;83.53;94897.19;5028029;28;20261;-69
2023/10/15 02:09:29;;;;;;;17.50;8.67;;;;;;;12.99;84.21;94897.66;4994494;28;20230;-70
2023/10/15 02:11:55;;;;;;;16.00;8.47;;;;;;;12.87;84.34;94895.94;5042038;28;20316;-68
2023/10/15 02:14:27;;;;;;;19.40;8.63;;;;;;;12.81;84.64;94897.59;5027509;28;20329;-69
2023/10/15 02:16:53;;;;;;;19.20;8.80;;;;;;;13.03;83.79;94901.47;5010122;28;20226;-68
2023/10/15 02:22:00;;;;;;;15.63;8.33;;;;;;;12.97;84.24;94897.06;5026211;28;20233;-68
2023/10/15 02:24:25;;;;;;;18.07;8.10;;;;;;;12.97;84.28;94902.31;5025419;28;20287;-69
2023/10/15 02:26:51;;;;;;;18.87;8.10;;;;;;;12.85;84.83;94896.16;5042390;28;20222;-69
2023/10/15 02:32:08;;;;;;;15.80;7.70;;;;;;;12.88;84.58;94900.16;5029072;28;20315;-67
2023/10/15 02:34:42;;;;;;;17.07;8.10;;;;;;;13.03;84.15;94900.66;5027964;28;20246;-68
2023/10/15 02:37:10;;;;;;;18.57;8.10;;;;;;;12.98;83.79;94900.50;5026219;28;20229;-69
2023/10/15 02:39:43;;;;;;;16.63;8.23;;;;;;;12.85;84.67;94898.78;5024213;28;20325;-69
2023/10/15 02:42:09;;;;;;;20.93;8.83;;;;;;;12.84;84.68;94900.63;5025669;28;20234;-69
2023/10/15 02:44:38;;;;;;;18.47;8.10;;;;;;;12.82;84.59;94899.22;4989437;28;20299;-69
2023/10/15 02:49:53;;;;;;;15.37;8.23;;;;;;;12.96;83.91;94900.72;4990340;28;20271;-68
2023/10/15 02:52:23;;;;;;;16.60;8.00;;;;;;;12.80;84.68;94886.28;4995611;28;20924;-69
2023/10/15 02:54:49;;;;;;;18.07;8.13;;;;;;;12.86;84.56;94900.41;5009178;28;20237;-69
2023/10/15 02:57:15;;;;;;;17.90;8.27;;;;;;;12.78;84.53;94892.75;4991454;28;20288;-69
2023/10/15 02:59:50;;;;;;;19.73;8.30;;;;;;;12.76;84.79;94895.63;5011382;28;20254;-68
2023/10/15 03:02:20;;;;;;;22.03;8.23;;;;;;;12.72;85.26;94897.06;5019755;28;20707;-68
2023/10/15 03:04:55;;;;;;;17.97;8.13;;;;;;;12.78;84.54;94893.56;5022979;28;20229;-68
2023/10/15 03:07:30;;;;;;;17.77;8.57;;;;;;;12.69;84.59;94899.31;5009312;28;20929;-69
2023/10/15 03:09:56;;;;;;;18.57;8.20;;;;;;;12.75;84.74;94890.59;4997663;28;20233;-69
2023/10/15 03:12:23;;;;;;;19.23;8.70;;;;;;;12.69;85.17;94896.66;5009620;28;20233;-68
2023/10/15 03:14:48;;;;;;;20.87;8.47;;;;;;;12.55;85.14;94897.78;4991923;28;20242;-69
2023/10/15 03:17:14;;;;;;;20.17;8.67;;;;;;;12.38;86.07;94884.34;5005916;28;20236;-69
2023/10/15 03:19:41;;;;;;;19.03;8.87;;;;;;;12.55;85.17;94888.09;5028688;28;20242;-69
2023/10/15 03:22:11;;;;;;;20.13;8.70;;;;;;;12.68;85.17;94887.22;5017477;28;21297;-69
2023/10/15 03:24:37;;;;;;;16.23;8.23;;;;;;;12.63;84.62;94889.66;5014596;28;20355;-69
2023/10/15 03:27:04;;;;;;;18.63;8.63;;;;;;;12.46;85.41;94891.19;5000979;28;20321;-68
2023/10/15 03:29:30;;;;;;;20.30;9.10;;;;;;;12.46;85.78;94889.38;4995454;28;20863;-69
2023/10/15 03:32:09;;;;;;;22.23;8.83;;;;;;;12.43;86.22;94881.91;5014127;28;20233;-69
2023/10/15 03:34:42;;;;;;;21.93;9.27;;;;;;;12.31;86.99;94886.22;5015379;28;20239;-68
2023/10/15 03:37:15;;;;;;;17.73;8.90;;;;;;;12.26;86.91;94882.59;4997978;28;20700;-69
2023/10/15 03:42:09;;;;;;;25.70;9.27;;;;;;;12.29;86.76;94887.44;5012021;28;20213;-69
2023/10/15 03:45:01;;;;;;;22.07;9.07;;;;;;;12.17;87.48;94882.06;5013665;28;20374;-68
2023/10/15 03:47:26;;;;;;;16.87;8.43;;;;;;;12.13;87.95;94879.03;5015636;28;20276;-68
2023/10/15 03:49:52;;;;;;;17.53;8.57;;;;;;;12.34;86.48;94882.38;5012049;28;20228;-69
2023/10/15 03:52:21;;;;;;;16.20;8.63;;;;;;;12.19;87.25;94882.66;4991746;28;20229;-70
2023/10/15 03:54:50;;;;;;;16.37;8.23;;;;;;;12.21;87.48;94887.66;5026289;28;20384;-68
2023/10/15 03:57:17;;;;;;;18.90;8.67;;;;;;;12.25;87.01;94887.06;5011059;28;20262;-69
2023/10/15 03:59:52;;;;;;;18.43;8.43;;;;;;;12.24;87.24;94882.00;5010260;28;20237;-68
2023/10/15 04:02:43;;;;;;;16.37;8.70;;;;;;;12.18;87.16;94872.38;5013548;28;20220;-69
2023/10/15 04:05:13;;;;;;;14.47;8.20;;;;;;;12.17;87.53;94876.81;5025710;28;20956;-69
2023/10/15 04:07:48;;;;;;;20.07;8.70;;;;;;;12.16;87.36;94883.88;5013441;28;20296;-69
2023/10/15 04:10:14;;;;;;;22.30;8.23;;;;;;;12.06;88.26;94875.63;5029861;28;20228;-69
2023/10/15 04:12:43;;;;;;;14.97;8.13;;;;;;;12.02;88.54;94868.41;5010667;28;20213;-68
2023/10/15 04:15:16;;;;;;;14.80;8.37;;;;;;;12.19;87.21;94866.91;4996775;28;20225;-69
2023/10/15 04:17:44;;;;;;;16.47;8.47;;;;;;;12.25;87.62;94875.75;4999395;28;20798;-69
2023/10/15 04:20:13;;;;;;;19.53;8.27;;;;;;;12.28;86.82;94867.44;5024072;28;20232;-68
2023/10/15 04:22:44;;;;;;;21.07;8.40;;;;;;;12.31;87.27;94870.47;5010145;28;20226;-68
2023/10/15 04:25:23;;;;;;;20.60;8.63;;;;;;;12.30;86.85;94874.09;5024564;28;20244;-68
2023/10/15 04:28:02;;;;;;;21.40;8.37;;;;;;;12.09;88.07;94871.78;5028076;28;20335;-68
2023/10/15 04:30:28;;;;;;;17.23;8.37;;;;;;;12.10;87.75;94874.22;5032965;28;20244;-68
2023/10/15 04:32:56;;;;;;;20.77;8.67;;;;;;;12.08;88.28;94880.69;5013736;28;20236;-68
2023/10/15 04:35:32;;;;;;;18.80;8.70;;;;;;;12.19;87.68;94874.78;5030609;28;20742;-68
2023/10/15 04:37:59;;;;;;;17.57;8.70;;;;;;;11.91;88.87;94885.63;5030849;28;20831;-69
2023/10/15 04:40:24;;;;;;;21.07;9.13;;;;;;;12.15;87.71;94884.09;5032888;28;20239;-69
2023/10/15 04:42:50;;;;;;;22.83;8.70;;;;;;;11.93;88.51;94875.72;5013071;28;20693;-69
2023/10/15 04:45:35;;;;;;;17.63;8.50;;;;;;;11.95;88.67;94888.63;4988067;28;20306;-68
2023/10/15 04:48:01;;;;;;;22.13;8.50;;;;;;;11.94;89.02;94873.91;5028914;28;20754;-68
2023/10/15 04:50:35;;;;;;;15.77;8.43;;;;;;;11.94;89.20;94884.41;4991116;28;20232;-68
2023/10/15 04:53:44;;;;;;;17.87;8.80;;;;;;;11.88;89.17;94880.78;5031413;28;20313;-67
2023/10/15 04:55:50;;;;;;;17.30;8.23;;;;;;;12.11;88.43;94881.06;5014421;28;20786;-68
2023/10/15 04:58:15;;;;;;;19.77;8.40;;;;;;;11.94;89.16;94885.19;5031687;28;20221;-67
2023/10/15 05:00:41;;;;;;;19.70;8.73;;;;;;;11.91;89.32;94893.50;5048700;28;20271;-69
2023/10/15 05:03:09;;;;;;;16.50;8.20;;;;;;;12.10;88.36;94895.22;5005868;28;20226;-69
2023/10/15 05:05:34;;;;;;;16.93;8.53;;;;;;;12.04;88.82;94890.78;4992141;28;20238;-68
2023/10/15 05:08:00;;;;;;;20.70;9.03;;;;;;;11.96;89.30;94896.28;4984707;28;20232;-69
2023/10/15 05:10:29;;;;;;;20.33;9.03;;;;;;;12.00;88.74;94897.47;5012465;28;20227;-69
2023/10/15 05:12:56;;;;;;;18.43;8.87;;;;;;;12.00;88.79;94900.09;5023533;28;20312;-68
2023/10/15 05:15:22;;;;;;;15.97;8.40;;;;;;;11.91;88.52;94895.28;4994879;28;20226;-69
2023/10/15 05:17:48;;;;;;;14.83;8.50;;;;;;;12.14;87.62;94896.41;5014986;28;20256;-69
2023/10/15 05:20:14;;;;;;;23.53;9.00;;;;;;;12.19;87.06;94901.00;5026586;28;20299;-68
2023/10/15 05:22:40;;;;;;;23.63;8.60;;;;;;;12.35;86.30;94899.72;4992567;28;20230;-68
2023/10/15 05:25:15;;;;;;;20.67;8.47;;;;;;;12.42;86.28;94908.38;5009439;28;20249;-81
2023/10/15 05:27:42;;;;;;;18.37;8.53;;;;;;;12.40;86.13;94903.31;5020748;28;20234;-82
2023/10/15 05:30:09;;;;;;;23.90;8.27;;;;;;;12.22;87.03;94905.84;5048604;28;20290;-82
2023/10/15 05:32:35;;;;;;;25.63;8.53;;;;;;;12.28;86.54;94905.00;5046438;28;20300;-82
2023/10/15 05:35:01;;;;;;;18.93;8.37;;;;;;;12.21;86.26;94906.03;5013149;28;20229;-82
2023/10/15 05:37:27;;;;;;;20.53;8.80;;;;;;;12.23;86.55;94904.81;5005041;28;20318;-80
2023/10/15 05:39:53;;;;;;;31.93;9.00;;;;;;;12.38;86.13;94904.53;5005851;28;20728;-82
2023/10/15 05:42:18;;;;;;;28.23;9.03;;;;;;;12.42;86.34;94897.88;5027691;28;20323;-81
2023/10/15 05:44:44;;;;;;;37.13;9.40;;;;;;;12.42;86.25;94893.41;5026560;28;20265;-82
2023/10/15 05:47:10;;;;;;;35.70;10.57;;;;;;;12.47;85.40;94892.78;4996593;28;20261;-81
2023/10/15 05:49:38;;;;;;;26.03;10.50;;;;;;;12.62;85.11;94886.22;5011561;28;20230;-80
2023/10/15 05:52:06;;;;;;;29.17;11.60;;;;;;;12.78;84.16;94898.00;5028626;28;20329;-82
2023/10/15 05:54:34;;;;;;;20.83;11.33;;;;;;;12.79;84.89;94891.75;5011827;28;20295;-83
2023/10/15 05:57:02;;;;;;;26.70;11.60;;;;;;;12.90;83.69;94890.28;5000799;28;20659;-82
2023/10/15 05:59:28;;;;;;;24.57;11.10;;;;;;;12.97;83.24;94896.28;5027810;28;20685;-68
2023/10/15 06:01:53;;;;;;;30.60;10.50;;;;;;;13.06;82.69;94902.91;5025310;28;20244;-70
2023/10/15 06:04:19;;;;;;;23.23;9.63;;;;;;;13.20;82.21;94904.38;5027514;28;20236;-69
2023/10/15 06:06:44;;;;;;;22.37;9.67;;;;;;;13.17;82.19;94900.38;5026350;28;20230;-69
2023/10/15 06:09:11;;;;;;;22.53;9.57;;;;;;;13.23;82.71;94907.38;5010653;28;20233;-81
2023/10/15 06:11:37;;;;;;;23.30;9.43;;;;;;;13.32;81.99;94907.94;5014256;28;20222;-82
2023/10/15 06:14:04;;;;;;;22.77;10.77;;;;;;;13.37;82.31;94906.22;5040252;28;20221;-69
2023/10/15 06:16:30;;;;;;;16.47;8.80;;;;;;;13.37;81.04;94900.97;5020992;28;20226;-69
2023/10/15 06:18:55;;;;;;;18.03;8.57;;;;;;;13.62;80.20;94900.13;5010496;28;20291;-69
2023/10/15 06:21:21;;;;;;;22.43;9.93;;;;;;;13.70;78.68;94898.03;4979656;28;20226;-70
2023/10/15 06:23:46;;;;;;;19.63;10.03;;;;;;;13.63;80.30;94902.56;4994943;28;20236;-68
2023/10/15 06:26:13;;;;;;;21.37;10.43;;;;;;;13.61;80.79;94893.28;4994359;28;20703;-70
2023/10/15 06:28:38;;;;;;;23.07;11.60;;;;;;;13.71;80.39;94889.09;5014492;28;20230;-69
2023/10/15 06:31:04;;;;;;;22.20;10.60;;;;;;;13.78;79.64;94895.09;5027155;28;20261;-69
2023/10/15 06:33:30;;;;;;;25.23;10.77;;;;;;;13.88;79.31;94890.13;4994837;28;20226;-69
2023/10/15 06:35:57;;;;;;;25.57;10.93;;;;;;;13.96;79.27;94889.03;5029956;28;21109;-69
2023/10/15 06:38:22;;;;;;;20.17;10.27;;;;;;;14.04;78.36;94892.16;5012303;28;20237;-69
2023/10/15 06:40:48;;;;;;;19.53;9.00;;;;;;;14.04;77.76;94886.88;5013422;28;20233;-69
2023/10/15 06:43:15;;;;;;;22.43;9.80;;;;;;;14.06;77.24;94890.13;5025492;28;20257;-69
2023/10/15 06:45:40;;;;;;;18.83;10.30;;;;;;;14.15;77.30;94891.44;5027878;28;20299;-69
2023/10/15 06:48:06;;;;;;;21.37;10.37;;;;;;;14.16;76.78;94879.06;5006699;28;20679;-69
2023/10/15 06:50:33;;;;;;;21.47;10.20;;;;;;;14.23;77.65;94881.63;4999902;28;20424;-69
2023/10/15 06:53:01;;;;;;;22.03;10.10;;;;;;;14.09;77.29;94875.72;5021178;28;20237;-69
2023/10/15 06:55:27;;;;;;;20.47;10.20;;;;;;;14.15;77.55;94880.09;5013984;28;20229;-69
2023/10/15 06:57:53;;;;;;;20.37;9.57;;;;;;;14.33;77.16;94872.16;5008761;28;20234;-69
2023/10/15 07:00:22;;;;;;;18.43;10.10;;;;;;;14.47;76.84;94873.59;5026232;28;20278;-69
2023/10/15 07:02:51;;;;;;;21.37;10.03;;;;;;;14.61;75.62;94866.31;4990841;28;20257;-71
2023/10/15 07:05:17;;;;;;;19.83;9.50;;;;;;;14.60;75.60;94862.88;5041788;28;20244;-69
2023/10/15 07:07:45;;;;;;;21.33;9.97;;;;;;;14.73;74.68;94862.69;5014034;28;20243;-69
2023/10/15 07:10:12;;;;;;;25.47;10.13;;;;;;;14.71;75.34;94854.19;5003438;28;20675;-69
2023/10/15 07:12:37;;;;;;;24.47;9.80;;;;;;;14.80;75.38;94858.13;5009281;28;20230;-69
2023/10/15 07:15:05;;;;;;;22.63;9.70;;;;;;;14.81;74.25;94856.25;5007696;28;20248;-68
2023/10/15 07:17:31;;;;;;;26.37;9.70;;;;;;;14.99;73.94;94852.75;5025373;28;20367;-69
2023/10/15 07:19:56;;;;;;;22.73;9.80;;;;;;;15.08;73.99;94854.00;5040130;28;20742;-68
2023/10/15 07:22:22;;;;;;;22.97;9.20;;;;;;;15.18;73.62;94855.06;5024734;28;20226;-68
2023/10/15 07:24:47;;;;;;;19.33;9.30;;;;;;;15.27;73.59;94852.88;5024965;28;20324;-83
2023/10/15 07:27:15;;;;;;;19.77;9.00;;;;;;;15.34;72.74;94848.28;5043537;28;20225;-82
2023/10/15 07:29:40;;;;;;;21.47;9.90;;;;;;;15.39;72.55;94849.19;5033473;28;20236;-82
2023/10/15 07:32:07;;;;;;;19.07;9.57;;;;;;;15.49;71.66;94844.19;5029576;28;20234;-82
2023/10/15 07:34:33;;;;;;;22.67;10.00;;;;;;;15.52;72.11;94837.66;5028971;28;20240;-83
2023/10/15 07:36:58;;;;;;;22.30;9.87;;;;;;;15.55;70.86;94839.78;5031827;28;20323;-82
2023/10/15 07:39:25;;;;;;;20.90;9.30;;;;;;;15.73;71.32;94844.13;5010720;28;20667;-83
2023/10/15 07:41:51;;;;;;;21.77;8.37;;;;;;;15.81;70.97;94838.50;5026365;28;20226;-85
2023/10/15 07:44:17;;;;;;;23.00;8.60;;;;;;;15.80;69.85;94842.16;5034640;28;20285;-83
2023/10/15 07:46:43;;;;;;;21.43;9.40;;;;;;;15.79;69.28;94836.09;5040605;28;20911;-81
2023/10/15 07:49:12;;;;;;;20.83;7.97;;;;;;;15.87;69.12;94833.09;5023354;28;20283;-86
2023/10/15 07:51:38;;;;;;;17.40;8.30;;;;;;;15.88;69.21;94836.53;5022878;28;20226;-83
2023/10/15 07:54:03;;;;;;;20.17;8.80;;;;;;;15.92;68.85;94827.91;5003577;28;20242;-81
2023/10/15 07:56:31;;;;;;;23.23;8.70;;;;;;;16.03;69.35;94828.88;5024470;28;20301;-82
2023/10/15 07:58:57;;;;;;;18.07;7.70;;;;;;;15.97;69.59;94829.84;5004167;28;20230;-82
2023/10/15 08:01:25;;;;;;;17.83;8.03;;;;;;;16.15;70.03;94824.38;5021148;28;20616;-84
2023/10/15 08:03:50;;;;;;;15.53;7.53;;;;;;;16.26;69.21;94820.09;5013063;28;20276;-84
2023/10/15 08:06:16;;;;;;;20.80;8.23;;;;;;;16.26;69.20;94826.19;5024833;28;20259;-82
2023/10/15 08:08:42;;;;;;;16.83;8.47;;;;;;;16.31;67.26;94823.59;5006599;28;20234;-82
2023/10/15 08:11:08;;;;;;;18.80;7.90;;;;;;;16.43;67.98;94826.22;5007237;28;20226;-84
2023/10/15 08:13:34;;;;;;;15.70;7.37;;;;;;;16.39;67.21;94814.50;5025923;28;20313;-80
2023/10/15 08:15:59;;;;;;;17.20;7.20;;;;;;;16.53;66.88;94815.81;5029871;28;20772;-83
2023/10/15 08:18:25;;;;;;;20.20;7.83;;;;;;;16.55;65.40;94811.91;4999990;28;20232;-82
2023/10/15 08:20:50;;;;;;;17.20;8.07;;;;;;;16.55;66.35;94813.78;4994492;28;20240;-82
2023/10/15 08:23:16;;;;;;;16.23;8.97;;;;;;;16.51;66.79;94805.50;5025860;28;20233;-84
2023/10/15 08:25:41;;;;;;;16.80;8.20;;;;;;;16.58;66.63;94805.34;5010755;28;20241;-85
2023/10/15 08:28:07;;;;;;;15.33;7.60;;;;;;;16.63;66.36;94808.88;5032396;28;20217;-85
2023/10/15 08:30:32;;;;;;;15.40;7.30;;;;;;;16.73;66.21;94806.41;5046448;28;20232;-84
2023/10/15 08:32:58;;;;;;;18.23;7.80;;;;;;;16.92;66.21;94798.22;4995477;28;20282;-82
2023/10/15 08:35:24;;;;;;;18.40;8.03;;;;;;;17.04;64.90;94791.00;5013789;28;20233;-82
2023/10/15 08:37:49;;;;;;;17.83;8.20;;;;;;;17.23;64.10;94792.34;5010631;28;20235;-82
2023/10/15 08:40:17;;;;;;;20.70;8.20;;;;;;;17.12;65.11;94793.25;5026273;28;20233;-83
2023/10/15 08:42:59;;;;;;;16.87;8.00;;;;;;;17.12;65.48;94795.91;4991398;28;20242;-82
2023/10/15 08:45:24;;;;;;;20.73;8.10;;;;;;;17.38;64.06;94789.91;4977325;28;20223;-83
2023/10/15 08:47:50;;;;;;;21.97;7.93;;;;;;;17.45;63.60;94788.69;5007093;28;20246;-83
2023/10/15 08:50:20;;;;;;;22.20;8.40;;;;;;;17.48;64.54;94790.84;4992804;28;20234;-83
2023/10/15 08:52:46;;;;;;;17.63;7.80;;;;;;;17.57;63.88;94788.63;4975315;28;20354;-82
2023/10/15 08:55:12;;;;;;;24.40;7.90;;;;;;;17.70;63.58;94782.13;5010157;28;20234;-82
2023/10/15 08:57:38;;;;;;;16.97;8.03;;;;;;;17.81;63.36;94781.22;4991172;28;20310;-82
2023/10/15 09:00:04;;;;;;;18.07;7.80;;;;;;;17.86;63.04;94778.63;4991140;28;20253;-82
2023/10/15 09:02:30;;;;;;;16.50;7.77;;;;;;;17.98;62.31;94777.44;5007065;28;20215;-83
2023/10/15 09:04:55;;;;;;;18.43;7.70;;;;;;;17.87;63.36;94770.44;5007630;28;20230;-84
2023/10/15 09:07:21;;;;;;;14.23;7.63;;;;;;;17.88;62.93;94771.25;4977214;28;20237;-83
2023/10/15 09:09:49;;;;;;;18.27;7.77;;;;;;;17.96;63.51;94773.47;5009635;28;20691;-82
2023/10/15 09:12:14;;;;;;;17.07;7.80;;;;;;;18.00;62.66;94769.25;5010071;28;20214;-81
2023/10/15 09:14:44;;;;;;;16.00;7.37;;;;;;;18.05;62.56;94767.47;5012596;28;20593;-82
2023/10/15 09:17:14;;;;;;;17.77;7.63;;;;;;;18.18;62.84;94763.59;5000486;28;20245;-83
2023/10/15 09:19:48;;;;;;;14.53;7.17;;;;;;;18.40;61.91;94763.56;4995647;28;20230;-82
2023/10/15 09:22:16;;;;;;;18.67;7.10;;;;;;;18.42;62.06;94758.78;4995412;28;21099;-69
2023/10/15 09:24:45;;;;;;;18.83;7.10;;;;;;;18.46;62.15;94755.41;5003729;28;20778;-69
2023/10/15 09:27:12;;;;;;;14.23;7.00;;;;;;;18.57;61.64;94754.47;5008452;28;20226;-69
2023/10/15 09:29:38;;;;;;;18.23;7.00;;;;;;;18.64;62.11;94757.72;5010378;28;20699;-69
2023/10/15 09:32:04;;;;;;;15.43;7.00;;;;;;;18.80;60.95;94753.31;5012456;28;20241;-69
2023/10/15 09:34:31;;;;;;;17.87;6.57;;;;;;;18.94;60.42;94749.16;5006840;28;20307;-70
2023/10/15 09:36:59;;;;;;;16.10;6.80;;;;;;;18.98;60.67;94742.31;4981057;28;20233;-69
2023/10/15 09:39:26;;;;;;;19.13;7.03;;;;;;;18.99;60.81;94743.91;4994321;28;20241;-69
2023/10/15 09:41:54;;;;;;;14.07;6.70;;;;;;;19.09;60.84;94736.00;4998418;28;20888;-69
2023/10/15 09:44:19;;;;;;;15.07;6.47;;;;;;;19.21;60.42;94735.81;4974521;28;20925;-68
2023/10/15 09:46:46;;;;;;;15.30;6.10;;;;;;;19.37;59.78;94733.00;4987289;28;20238;-70
2023/10/15 09:49:12;;;;;;;13.90;6.10;;;;;;;19.61;59.18;94724.63;5005122;28;20288;-69
2023/10/15 09:51:38;;;;;;;22.87;6.60;;;;;;;19.78;58.17;94731.31;5006261;28;20286;-69
2023/10/15 09:54:05;;;;;;;17.37;6.33;;;;;;;19.74;58.57;94719.63;4988549;28;20284;-68
2023/10/15 09:56:31;;;;;;;16.63;6.60;;;;;;;19.91;58.24;94722.88;5002687;28;20222;-69
2023/10/15 09:58:56;;;;;;;16.30;6.30;;;;;;;20.06;57.73;94714.13;5003983;28;20293;-69
2023/10/15 10:01:25;;;;;;;14.97;6.67;;;;;;;20.16;57.66;94717.59;5021384;28;20739;-69
2023/10/15 10:04:23;;;;;;;19.67;6.43;;;;;;;20.32;56.40;94707.81;5003600;28;20238;-70
2023/10/15 10:07:38;;;;;;;17.00;6.30;;;;;;;20.40;57.03;94703.81;4998382;28;20227;-69
2023/10/15 10:10:22;;;;;;;18.10;6.30;;;;;;;20.61;56.46;94702.78;4984603;28;20639;-68
2023/10/15 10:13:16;;;;;;;16.90;6.63;;;;;;;20.70;55.64;94698.50;5022997;28;20233;-70
2023/10/15 10:15:55;;;;;;;18.40;6.00;;;;;;;20.80;56.10;94698.50;4985577;28;20313;-79
2023/10/15 10:18:29;;;;;;;14.73;6.00;;;;;;;21.15;53.77;94690.47;4987436;28;20246;-82
2023/10/15 10:20:56;;;;;;;16.87;5.83;;;;;;;21.08;55.28;94684.66;4973383;28;20307;-83
2023/10/15 10:23:22;;;;;;;17.60;6.20;;;;;;;21.31;55.62;94685.91;4984977;28;20227;-79
2023/10/15 10:25:48;;;;;;;17.10;6.03;;;;;;;21.59;53.66;94687.13;4994208;28;20286;-83
2023/10/15 10:28:15;;;;;;;14.03;6.27;;;;;;;21.56;52.99;94671.69;4992523;28;20230;-83
2023/10/15 10:30:55;;;;;;;14.20;6.13;;;;;;;21.69;53.60;94674.53;4998347;28;20766;-82
2023/10/15 10:33:46;;;;;;;14.47;5.90;;;;;;;21.68;53.90;94666.84;5016134;28;20285;-79
2023/10/15 10:36:18;;;;;;;17.73;5.80;;;;;;;21.81;53.66;94660.91;5019630;28;20329;-80
2023/10/15 10:39:08;;;;;;;11.83;5.87;;;;;;;22.05;51.68;94654.66;4987091;28;20249;-84
2023/10/15 10:41:49;;;;;;;12.43;5.63;;;;;;;21.94;52.49;94653.13;4988620;28;20229;-84
2023/10/15 10:44:24;;;;;;;14.53;5.70;;;;;;;21.96;52.46;94642.19;5013324;28;20233;-83
2023/10/15 10:46:52;;;;;;;14.77;5.73;;;;;;;22.28;51.21;94647.84;5025176;28;20316;-81
2023/10/15 10:49:28;;;;;;;14.27;5.70;;;;;;;22.45;50.85;94642.09;4996063;28;20233;-81
2023/10/15 10:52:05;;;;;;;14.00;5.30;;;;;;;;;;5007381;28;20320;-80
2023/10/15 10:54:31;;;;;;;13.27;5.33;;;;;;;22.81;49.55;94626.59;5027264;28;20261;-81
2023/10/15 10:57:00;;;;;;;12.70;5.27;;;;;;;23.02;48.71;94627.97;4996082;28;20246;-83
2023/10/15 10:59:28;;;;;;;13.17;5.50;;;;;;;23.01;48.51;94618.34;4978559;28;20757;-79
2023/10/15 11:01:53;;;;;;;10.83;5.40;;;;;;;23.08;47.50;94622.28;4976920;28;20615;-79
2023/10/15 11:04:19;;;;;;;14.17;5.27;;;;;;;23.20;47.02;94613.84;5005516;28;20235;-81
2023/10/15 11:06:48;;;;;;;14.83;5.53;;;;;;;23.25;47.25;94614.59;4993143;28;20234;-82
2023/10/15 11:09:19;;;;;;;13.33;5.50;;;;;;;23.36;46.90;94604.59;4975440;28;20236;-80
2023/10/15 11:11:55;;;;;;;12.80;5.63;;;;;;;23.19;47.54;94607.72;4977939;28;20238;-84
2023/10/15 11:14:29;;;;;;;13.13;5.00;;;;;;;23.30;46.27;94601.19;4982938;28;20227;-82
2023/10/15 11:16:55;;;;;;;15.80;5.37;;;;;;;23.39;46.34;94604.84;5010621;28;20711;-81
2023/10/15 11:19:23;;;;;;;9.57;5.03;;;;;;;23.41;45.72;94589.31;4987107;28;20241;-85
2023/10/15 11:21:50;;;;;;;12.03;5.10;;;;;;;23.53;45.36;94599.56;5005278;28;20239;-81
2023/10/15 11:24:16;;;;;;;12.60;5.70;;;;;;;23.62;44.75;94600.50;4971771;28;20288;-81
2023/10/15 11:26:42;;;;;;;13.30;5.03;;;;;;;23.54;45.70;94598.50;4987271;28;20239;-78
2023/10/15 11:29:20;;;;;;;15.70;5.70;;;;;;;23.58;45.47;94590.69;4991702;28;20237;-82
2023/10/15 11:31:52;;;;;;;14.20;5.47;;;;;;;23.62;45.15;94592.50;5010579;28;21453;-80
2023/10/15 11:34:19;;;;;;;9.93;5.20;;;;;;;23.66;45.48;94579.38;4998261;28;20247;-80
2023/10/15 11:36:48;;;;;;;12.23;5.00;;;;;;;23.59;44.63;94594.97;4957465;28;20226;-80
2023/10/15 11:39:25;;;;;;;11.07;5.50;;;;;;;23.60;45.23;94588.53;4981106;28;20230;-82
2023/10/15 11:41:55;;;;;;;15.47;5.23;;;;;;;23.56;44.69;94579.50;4991331;28;20336;-82
2023/10/15 11:44:26;;;;;;;12.40;5.37;;;;;;;23.56;45.60;94579.50;4995484;28;20358;-84
2023/10/15 11:46:55;;;;;;;12.97;5.23;;;;;;;23.64;44.04;94576.19;5011436;28;20687;-82